Time;durP1;ratioP1;P1;durP2;ratioP2;P2;SDS_P1;SDS_P2;PMS_P1;PMS_P2;Temp;Humidity;BMP_temperature;BMP_pressure;BME280_temperature;BME280_humidity;BME280_pressure;Samples;Min_cycle;Max_cycle;Signal;HPM_P1;HPM_P2
2024/02/19 00:00:26;;;;;;;3.53;2.57;;;;;;;10.63;88.12;96491.22;4974529;28;20216;-87
2024/02/19 00:02:55;;;;;;;3.30;2.80;;;;;;;10.66;87.77;96481.44;4965878;28;20217;-86
2024/02/19 00:05:23;;;;;;;2.90;2.70;;;;;;;10.63;88.39;96486.88;4969925;28;20287;-86
2024/02/19 00:07:50;;;;;;;3.00;2.70;;;;;;;10.60;88.88;96504.41;4973958;28;20196;-87
2024/02/19 00:10:16;;;;;;;2.70;2.43;;;;;;;10.71;88.45;96493.84;4973901;28;20232;-87
2024/02/19 00:12:43;;;;;;;2.97;2.60;;;;;;;10.70;89.06;96494.81;4973647;28;20845;-87
2024/02/19 00:15:10;;;;;;;2.73;2.20;;;;;;;10.58;89.43;96511.50;4973441;28;20208;-86
2024/02/19 00:17:36;;;;;;;3.47;2.23;;;;;;;10.63;90.40;96524.72;4972235;28;20247;-85
2024/02/19 00:20:04;;;;;;;3.67;2.10;;;;;;;10.63;89.71;96510.06;4964977;28;20212;-86
2024/02/19 00:22:32;;;;;;;2.67;2.20;;;;;;;10.64;90.28;96514.25;4986671;28;20203;-86
2024/02/19 00:24:59;;;;;;;2.83;2.33;;;;;;;10.58;90.50;96517.44;4975594;28;20263;-86
2024/02/19 00:27:25;;;;;;;2.90;2.10;;;;;;;10.55;91.13;96528.06;4973492;28;20227;-87
2024/02/19 00:29:53;;;;;;;2.70;2.13;;;;;;;10.64;91.05;96532.28;4973566;28;20200;-86
2024/02/19 00:32:19;;;;;;;2.30;2.10;;;;;;;10.61;91.17;96522.28;4973671;28;20200;-87
2024/02/19 00:34:46;;;;;;;2.33;2.00;;;;;;;10.55;91.63;96528.06;4967405;28;20730;-86
2024/02/19 00:37:13;;;;;;;1.97;1.70;;;;;;;10.45;92.45;96540.22;4960053;28;20212;-85
2024/02/19 00:39:40;;;;;;;1.93;1.80;;;;;;;10.44;93.62;96554.06;4954340;29;20212;-87
2024/02/19 00:42:06;;;;;;;2.67;1.80;;;;;;;10.23;95.19;96580.13;4959637;28;21022;-86
2024/02/19 00:44:33;;;;;;;2.30;2.10;;;;;;;10.16;96.80;96597.13;4973258;28;20200;-86
2024/02/19 00:47:00;;;;;;;3.40;1.80;;;;;;;10.16;97.84;96606.59;4972449;28;20212;-86
2024/02/19 00:49:28;;;;;;;1.83;1.73;;;;;;;10.21;97.91;96604.41;4971625;28;20211;-86
2024/02/19 00:51:54;;;;;;;1.73;1.63;;;;;;;10.20;97.67;96605.38;4964904;28;20298;-86
2024/02/19 00:54:22;;;;;;;2.10;1.87;;;;;;;10.36;97.13;96602.94;4965072;28;20263;-86
2024/02/19 00:56:49;;;;;;;2.33;1.60;;;;;;;10.30;97.80;96606.09;4972544;28;20781;-86
2024/02/19 00:59:15;;;;;;;1.80;1.70;;;;;;;10.37;96.97;96586.53;4973446;28;20208;-87
2024/02/19 01:01:41;;;;;;;1.93;1.83;;;;;;;10.23;96.86;96582.72;4972367;28;20231;-86
2024/02/19 01:04:08;;;;;;;1.60;1.50;;;;;;;10.17;97.39;96587.63;4971842;28;20211;-86
2024/02/19 01:06:34;;;;;;;1.90;1.57;;;;;;;10.14;98.03;96599.03;4969234;28;20229;-86
2024/02/19 01:09:01;;;;;;;1.50;1.40;;;;;;;10.19;98.21;96603.78;4963705;28;20205;-86
2024/02/19 01:11:30;;;;;;;1.30;1.20;;;;;;;9.98;97.98;96599.69;4972413;28;20292;-86
2024/02/19 01:13:56;;;;;;;1.17;1.07;;;;;;;9.99;98.94;96610.81;4972165;28;20212;-86
2024/02/19 01:16:25;;;;;;;5.87;1.17;;;;;;;9.98;99.01;96620.28;4972694;28;20208;-86
2024/02/19 01:18:52;;;;;;;1.07;1.00;;;;;;;9.82;99.36;96601.28;4972224;28;20243;-87
2024/02/19 01:21:19;;;;;;;1.43;1.03;;;;;;;9.80;100.00;96618.66;4975208;28;20220;-86
2024/02/19 01:23:45;;;;;;;1.47;1.37;;;;;;;9.90;99.47;96617.63;4971357;28;20299;-86
2024/02/19 01:26:13;;;;;;;1.23;0.90;;;;;;;9.93;99.09;96596.75;4972103;28;20271;-86
2024/02/19 01:28:40;;;;;;;0.80;0.80;;;;;;;9.85;99.34;96601.81;4972902;28;20208;-86
2024/02/19 01:31:08;;;;;;;0.83;0.83;;;;;;;9.76;100.00;96627.63;4972122;28;20219;-86
2024/02/19 01:33:34;;;;;;;0.80;0.80;;;;;;;9.84;100.00;96637.97;4971905;28;20207;-86
2024/02/19 01:36:02;;;;;;;0.90;0.90;;;;;;;9.90;100.00;96632.25;4971257;28;20204;-87
2024/02/19 01:38:29;;;;;;;0.73;0.73;;;;;;;9.82;100.00;96629.59;4969254;28;20216;-86
2024/02/19 01:40:55;;;;;;;1.27;0.60;;;;;;;9.78;100.00;96636.81;4962819;28;20216;-86
2024/02/19 01:43:22;;;;;;;0.60;0.60;;;;;;;9.87;100.00;96632.53;4971845;28;20204;-87
2024/02/19 01:45:50;;;;;;;0.60;0.60;;;;;;;9.80;100.00;96634.91;4971616;28;20239;-87
2024/02/19 01:48:17;;;;;;;0.60;0.60;;;;;;;9.82;100.00;96620.09;4971416;28;20204;-86
2024/02/19 01:50:45;;;;;;;1.23;1.13;;;;;;;9.73;100.00;96625.34;4971398;28;20622;-87
2024/02/19 01:53:12;;;;;;;0.80;0.70;;;;;;;9.69;100.00;96635.09;4971337;28;20291;-86
2024/02/19 01:55:41;;;;;;;0.50;0.50;;;;;;;9.76;100.00;96620.72;4965148;28;20266;-87
2024/02/19 01:58:07;;;;;;;0.40;0.40;;;;;;;9.68;100.00;96612.91;4956997;28;20317;-87
2024/02/19 02:00:34;;;;;;;0.50;0.50;;;;;;;9.61;100.00;96619.59;4954766;28;20263;-86
2024/02/19 02:03:02;;;;;;;1.17;0.70;;;;;;;9.58;100.00;96630.97;4970779;28;20267;-86
2024/02/19 02:05:31;;;;;;;0.50;0.50;;;;;;;9.58;100.00;96632.75;4971403;28;20212;-87
2024/02/19 02:08:01;;;;;;;0.40;0.40;;;;;;;9.67;100.00;96629.28;4970760;28;20200;-86
2024/02/19 02:10:28;;;;;;;1.00;0.50;;;;;;;9.56;100.00;96619.22;4969754;28;20224;-86
2024/02/19 02:12:55;;;;;;;1.03;0.70;;;;;;;9.53;100.00;96637.50;4959302;28;20625;-86
2024/02/19 02:15:21;;;;;;;0.50;0.50;;;;;;;9.58;100.00;96637.88;4971213;28;20248;-86
2024/02/19 02:17:47;;;;;;;0.40;0.40;;;;;;;9.63;100.00;96623.63;4970793;28;20200;-86
2024/02/19 02:20:15;;;;;;;0.37;0.37;;;;;;;9.46;100.00;96621.81;4970655;28;20725;-86
2024/02/19 02:22:43;;;;;;;0.30;0.30;;;;;;;9.49;100.00;96628.44;4973625;28;20193;-86
2024/02/19 02:25:09;;;;;;;0.47;0.47;;;;;;;9.61;100.00;96619.59;4970817;28;20303;-86
2024/02/19 02:27:39;;;;;;;0.50;0.40;;;;;;;9.52;100.00;96610.97;4965895;28;20278;-86
2024/02/19 02:30:08;;;;;;;1.40;0.40;;;;;;;9.50;100.00;96612.88;4962387;28;20677;-86
2024/02/19 02:32:35;;;;;;;0.40;0.40;;;;;;;9.42;100.00;96612.81;4970614;28;20665;-86
2024/02/19 02:35:02;;;;;;;0.77;0.40;;;;;;;9.48;100.00;96619.13;4970098;28;20196;-86
2024/02/19 02:37:31;;;;;;;0.93;0.30;;;;;;;9.50;100.00;96617.22;4969931;28;20628;-86
2024/02/19 02:39:57;;;;;;;0.40;0.40;;;;;;;9.40;100.00;96631.91;4970048;28;20258;-87
2024/02/19 02:42:26;;;;;;;0.37;0.37;;;;;;;9.31;100.00;96628.41;4970525;28;20204;-86
2024/02/19 02:44:54;;;;;;;0.87;0.30;;;;;;;9.38;100.00;96638.94;4954815;28;20208;-86
2024/02/19 02:47:20;;;;;;;0.40;0.40;;;;;;;9.44;100.00;96641.72;4970517;28;20228;-86
2024/02/19 02:49:46;;;;;;;0.30;0.30;;;;;;;9.42;100.00;96643.66;4970066;28;20208;-86
2024/02/19 02:52:13;;;;;;;0.40;0.40;;;;;;;9.44;100.00;96628.06;4969484;28;20248;-87
2024/02/19 02:54:39;;;;;;;0.30;0.30;;;;;;;9.31;100.00;96631.78;4969960;28;20204;-86
2024/02/19 02:57:06;;;;;;;1.07;0.40;;;;;;;9.39;100.00;96640.56;4970405;28;20204;-86
2024/02/19 02:59:32;;;;;;;0.30;0.30;;;;;;;9.51;100.00;96641.97;4966289;28;20213;-86
2024/02/19 03:02:22;;;;;;;0.50;0.40;;;;;;;9.49;100.00;96636.16;4994532;23;20743;-86
2024/02/19 03:04:57;;;;;;;0.40;0.40;;;;;;;9.47;100.00;96628.59;4994782;28;20725;-86
2024/02/19 03:07:38;;;;;;;0.40;0.40;;;;;;;9.33;100.00;96635.03;4979041;28;20215;-86
2024/02/19 03:10:35;;;;;;;0.30;0.30;;;;;;;9.24;100.00;96647.91;4969873;28;20643;-85
2024/02/19 03:16:08;;;;;;;0.50;0.50;;;;;;;9.21;100.00;96679.84;4983915;28;20207;-86
2024/02/19 03:18:54;;;;;;;0.57;0.40;;;;;;;9.23;100.00;96667.69;4989099;28;20651;-85
2024/02/19 03:21:26;;;;;;;0.73;0.50;;;;;;;9.17;100.00;96673.38;4993302;28;20215;-87
2024/02/19 03:24:02;;;;;;;1.07;0.50;;;;;;;9.22;100.00;96668.63;5008813;28;20203;-86
2024/02/19 03:26:34;;;;;;;0.30;0.30;;;;;;;9.34;100.00;96674.38;5003193;28;20219;-86
2024/02/19 03:29:12;;;;;;;0.40;0.40;;;;;;;9.38;100.00;96668.03;4989959;28;20238;-86
2024/02/19 03:34:50;;;;;;;0.40;0.40;;;;;;;9.24;100.00;96679.56;4986064;28;20289;-86
2024/02/19 03:37:17;;;;;;;0.40;0.40;;;;;;;9.27;100.00;96683.59;4989162;28;20221;-86
2024/02/19 03:40:07;;;;;;;1.33;0.50;;;;;;;9.34;100.00;96684.66;4988002;28;20204;-87
2024/02/19 03:42:44;;;;;;;0.73;0.40;;;;;;;9.31;100.00;96677.25;4990608;28;20200;-86
2024/02/19 03:45:32;;;;;;;0.50;0.50;;;;;;;9.45;100.00;96663.91;4988824;28;20206;-86
2024/02/19 03:48:05;;;;;;;0.50;0.50;;;;;;;9.41;100.00;96654.88;4972945;28;20351;-86
2024/02/19 03:50:48;;;;;;;0.40;0.40;;;;;;;9.45;100.00;96650.25;4989701;28;20266;-86
2024/02/19 03:53:24;;;;;;;0.40;0.40;;;;;;;9.53;100.00;96660.63;4979319;28;20215;-86
2024/02/19 03:56:02;;;;;;;;;;;;;;;;;;;;;
2024/02/19 03:58:36;;;;;;;0.40;0.40;;;;;;;9.64;100.00;96650.94;4975943;28;20200;-86
2024/02/19 04:03:47;;;;;;;0.40;0.40;;;;;;;9.52;100.00;96648.72;4984215;28;20669;-86
2024/02/19 04:06:43;;;;;;;0.50;0.50;;;;;;;9.31;100.00;96669.53;4987661;28;20211;-86
2024/02/19 04:09:26;;;;;;;0.97;0.50;;;;;;;9.44;100.00;96698.28;4995765;28;20204;-86
2024/02/19 04:12:03;;;;;;;0.70;0.50;;;;;;;9.50;100.00;96684.06;4986409;28;20219;-86
2024/02/19 04:14:34;;;;;;;0.83;0.60;;;;;;;9.53;100.00;96689.72;4989662;28;20207;-86
2024/02/19 04:17:21;;;;;;;0.40;0.40;;;;;;;9.67;100.00;96688.44;4989418;28;20693;-85
2024/02/19 04:20:19;;;;;;;0.50;0.50;;;;;;;9.55;100.00;96680.13;4981109;28;20211;-86
2024/02/19 04:23:16;;;;;;;0.50;0.50;;;;;;;9.51;100.00;96689.06;4994188;28;20222;-86
2024/02/19 04:26:23;;;;;;;0.50;0.50;;;;;;;9.55;100.00;96685.25;4982867;28;20723;-86
2024/02/19 04:29:08;;;;;;;0.50;0.50;;;;;;;9.43;100.00;96688.94;4981269;28;20246;-85
2024/02/19 04:31:35;;;;;;;0.77;0.50;;;;;;;9.40;100.00;96703.88;4968065;28;20227;-86
2024/02/19 04:34:25;;;;;;;;;;;;;;;;;;;;;
2024/02/19 04:37:10;;;;;;;0.50;0.50;;;;;;;9.45;100.00;96712.75;4980632;28;20229;-86
2024/02/19 04:40:02;;;;;;;0.40;0.40;;;;;;;9.45;100.00;96702.47;4988243;28;20196;-86
2024/02/19 04:42:45;;;;;;;0.53;0.50;;;;;;;9.39;100.00;96704.81;4992241;28;20203;-85
2024/02/19 04:48:37;;;;;;;0.50;0.50;;;;;;;9.33;100.00;96699.28;4991044;28;20226;-86
2024/02/19 04:51:07;;;;;;;0.70;0.70;;;;;;;9.43;100.00;96701.78;4992996;28;20297;-86
2024/02/19 04:53:45;;;;;;;0.83;0.60;;;;;;;9.44;100.00;96694.91;4988169;28;20648;-86
2024/02/19 04:56:19;;;;;;;0.60;0.60;;;;;;;9.37;100.00;96704.16;4989025;28;20231;-86
2024/02/19 05:05:09;;;;;;;0.60;0.60;;;;;;;9.55;100.00;96676.72;4988870;28;20298;-87
2024/02/19 05:07:57;;;;;;;0.70;0.70;;;;;;;9.46;100.00;96696.38;4994044;28;20220;-85
2024/02/19 05:13:47;;;;;;;0.60;0.60;;;;;;;9.60;100.00;96677.94;4993423;28;20579;-86
2024/02/19 05:16:44;;;;;;;0.60;0.60;;;;;;;9.56;100.00;96678.34;4976006;28;20286;-86
2024/02/19 05:19:21;;;;;;;0.70;0.70;;;;;;;9.58;100.00;96671.31;4958225;28;20212;-86
2024/02/19 05:22:00;;;;;;;0.90;0.80;;;;;;;9.63;100.00;96679.38;4986784;28;20612;-85
2024/02/19 05:25:07;;;;;;;0.77;0.77;;;;;;;9.71;100.00;96661.47;4993758;28;20298;-85
2024/02/19 05:27:36;;;;;;;0.70;0.70;;;;;;;9.72;100.00;96654.56;4988039;28;20671;-85
2024/02/19 05:30:03;;;;;;;0.93;0.90;;;;;;;9.77;100.00;96645.47;4991589;28;20247;-86
2024/02/19 05:32:59;;;;;;;0.83;0.83;;;;;;;9.74;100.00;96644.97;4991967;28;20246;-85
2024/02/19 05:35:50;;;;;;;0.90;0.87;;;;;;;9.80;100.00;96646.97;4990589;28;20206;-85
2024/02/19 05:38:30;;;;;;;0.90;0.90;;;;;;;9.88;100.00;96634.16;4979009;28;20548;-86
2024/02/19 05:41:12;;;;;;;0.80;0.80;;;;;;;9.84;100.00;96619.97;4990619;28;20305;-87
2024/02/19 05:44:18;;;;;;;1.63;1.53;;;;;;;9.83;100.00;96616.59;4990250;28;20214;-86
2024/02/19 05:46:48;;;;;;;1.20;1.10;;;;;;;9.81;100.00;96622.84;4985966;28;21544;-86
2024/02/19 05:49:23;;;;;;;0.97;0.90;;;;;;;9.77;100.00;96629.25;4984227;28;20206;-86
2024/02/19 05:51:51;;;;;;;0.90;0.90;;;;;;;9.75;100.00;96626.81;4989008;28;20218;-86
2024/02/19 05:58:52;;;;;;;1.53;1.00;;;;;;;9.87;100.00;96623.06;4996671;28;20203;-85
2024/02/19 06:01:53;;;;;;;1.57;1.00;;;;;;;9.98;100.00;96615.13;4885455;29;20224;-86
2024/02/19 06:10:46;;;;;;;1.63;1.10;;;;;;;9.87;100.00;96633.34;4978157;22;20323;-87
2024/02/19 06:13:39;;;;;;;1.40;1.03;;;;;;;9.92;100.00;96640.63;5010695;28;20286;-86
2024/02/19 06:19:39;;;;;;;1.37;1.20;;;;;;;9.97;100.00;96651.31;5004729;28;20576;-86
2024/02/19 06:23:02;;;;;;;;;;;;;;;;;;;;;
2024/02/19 06:31:57;;;;;;;1.27;1.17;;;;;;;9.98;100.00;96658.06;4852590;29;20290;-86
2024/02/19 06:34:50;;;;;;;1.30;1.20;;;;;;;10.06;100.00;96673.56;4853661;29;20200;-86
2024/02/19 06:37:20;;;;;;;2.07;1.20;;;;;;;9.99;100.00;96675.94;4848465;29;20200;-85
2024/02/19 06:50:22;;;;;;;1.30;1.20;;;;;;;10.49;100.00;96693.47;4936174;29;20305;-84
2024/02/19 06:52:51;;;;;;;0.90;0.90;;;;;;;10.59;97.46;96624.63;4984206;28;20200;-85
2024/02/19 06:58:56;;;;;;;1.10;1.00;;;;;;;10.65;95.66;96598.28;4923140;29;20213;-85
2024/02/19 07:02:03;;;;;;;1.63;0.90;;;;;;;10.80;94.52;96571.97;4939395;28;20273;-85
2024/02/19 07:04:36;;;;;;;0.80;0.80;;;;;;;10.91;93.66;96563.97;4988714;28;20218;-85
2024/02/19 07:10:20;;;;;;;0.80;0.80;;;;;;;11.02;91.43;96536.16;4990368;28;20203;-84
2024/02/19 07:16:27;;;;;;;2.93;2.00;;;;;;;11.16;88.59;96479.84;4983518;28;20234;-85
2024/02/19 07:19:52;;;;;;;0.70;0.70;;;;;;;10.95;87.88;96470.75;4977520;28;20724;-84
2024/02/19 07:23:16;;;;;;;0.77;0.77;;;;;;;10.95;89.13;96500.88;4910274;29;20241;-84
2024/02/19 07:36:30;;;;;;;;;;;;;;;;;;;;;
2024/02/19 07:39:02;;;;;;;0.80;0.80;;;;;;;11.04;88.06;96476.72;4978272;28;20199;-85
2024/02/19 07:48:46;;;;;;;0.70;0.70;;;;;;;11.08;88.27;96493.50;4911588;28;20875;-86
2024/02/19 07:51:40;;;;;;;2.20;1.00;;;;;;;10.78;88.84;96509.47;4980943;28;20232;-85
2024/02/19 07:57:35;;;;;;;1.20;1.00;;;;;;;10.67;91.42;96572.38;4968126;28;20202;-85
2024/02/19 08:00:32;;;;;;;1.27;1.10;;;;;;;10.61;92.55;96589.25;4997894;28;20224;-85
2024/02/19 08:03:01;;;;;;;6.07;1.13;;;;;;;10.58;93.49;96606.78;4985983;28;20218;-85
2024/02/19 08:05:59;;;;;;;3.83;3.53;;;;;;;10.43;94.45;96618.56;4990860;28;20884;-85
2024/02/19 08:08:53;;;;;;;1.43;1.23;;;;;;;10.35;95.53;96639.94;4992253;28;20318;-86
2024/02/19 08:14:48;;;;;;;1.90;1.27;;;;;;;10.19;98.17;96670.69;4925169;28;20235;-86
2024/02/19 08:17:38;;;;;;;2.03;1.10;;;;;;;10.34;97.80;96669.19;4990154;28;20572;-85
2024/02/19 08:20:35;;;;;;;1.60;1.50;;;;;;;10.47;96.85;96658.50;4991472;28;20266;-85
2024/02/19 08:28:52;;;;;;;1.93;1.20;;;;;;;10.70;92.72;96598.66;4991145;28;20235;-86
2024/02/19 08:34:49;;;;;;;1.43;1.10;;;;;;;10.87;90.18;96560.09;4990100;28;20218;-85
2024/02/19 08:40:44;;;;;;;1.40;1.03;;;;;;;10.97;87.40;96527.25;4994851;28;20231;-85
2024/02/19 08:43:44;;;;;;;1.60;1.37;;;;;;;10.90;87.21;96521.13;5005472;28;20229;-86
2024/02/19 08:46:38;;;;;;;2.47;1.30;;;;;;;10.88;87.21;96530.78;5009965;28;20204;-86
2024/02/19 08:49:32;;;;;;;1.40;1.30;;;;;;;10.88;87.16;96533.38;5021705;28;20222;-84
2024/02/19 08:51:59;;;;;;;1.90;1.40;;;;;;;10.85;86.92;96531.91;5003822;28;20207;-85
2024/02/19 08:54:27;;;;;;;1.90;1.23;;;;;;;10.85;88.10;96557.66;5003128;28;20200;-85
2024/02/19 08:57:10;;;;;;;2.00;1.43;;;;;;;10.81;86.57;96530.59;5003089;28;20196;-85
2024/02/19 08:59:37;;;;;;;3.27;1.40;;;;;;;10.89;85.91;96524.66;5000786;28;20192;-86
2024/02/19 09:05:30;;;;;;;4.63;3.60;;;;;;;10.95;84.89;96506.03;4954992;29;20239;-85
2024/02/19 09:10:58;;;;;;;2.43;1.43;;;;;;;10.65;83.22;96477.25;5026388;23;20230;-85
2024/02/19 09:13:52;;;;;;;1.53;1.40;;;;;;;10.65;83.28;96482.38;5013099;28;20255;-85
2024/02/19 09:16:46;;;;;;;1.50;1.40;;;;;;;10.67;83.10;96482.25;4998520;28;20214;-85
2024/02/19 09:19:14;;;;;;;3.30;1.50;;;;;;;10.73;84.03;96505.63;4999172;28;20191;-85
2024/02/19 09:22:02;;;;;;;2.07;1.47;;;;;;;10.60;82.48;96464.00;4994525;28;20270;-86
2024/02/19 09:24:30;;;;;;;1.93;1.40;;;;;;;10.58;82.47;96481.38;4996608;28;20211;-85
2024/02/19 09:27:19;;;;;;;3.73;1.73;;;;;;;10.73;82.07;96466.97;4992990;28;20207;-85
2024/02/19 09:32:39;;;;;;;2.40;1.30;;;;;;;11.14;79.72;96414.75;5041963;23;20642;-85
2024/02/19 09:35:18;;;;;;;;;;;;;;;;;;;;;
2024/02/19 09:38:10;;;;;;;3.53;2.37;;;;;;;11.89;74.54;96278.63;5024969;28;20730;-85
2024/02/19 09:41:04;;;;;;;2.10;1.60;;;;;;;12.10;72.41;96214.34;5030546;28;20218;-85
2024/02/19 09:43:30;;;;;;;3.43;1.50;;;;;;;11.99;70.94;96163.09;5032927;28;20289;-86
2024/02/19 09:45:57;;;;;;;2.67;1.40;;;;;;;12.08;71.13;96170.63;5034120;28;20216;-85
2024/02/19 09:48:24;;;;;;;1.93;1.07;;;;;;;12.25;69.85;96131.78;5028206;28;20279;-84
2024/02/19 09:50:54;;;;;;;1.83;1.10;;;;;;;12.31;69.22;96105.28;5022795;28;20634;-86
2024/02/19 09:53:28;;;;;;;1.20;0.90;;;;;;;12.14;69.19;96112.31;5025949;28;20680;-85
2024/02/19 09:55:54;;;;;;;1.67;1.17;;;;;;;12.23;69.30;96113.06;5031203;28;20229;-86
2024/02/19 09:58:21;;;;;;;1.37;1.07;;;;;;;12.18;68.20;96069.69;5030514;28;20690;-85
2024/02/19 10:00:55;;;;;;;1.00;1.00;;;;;;;12.37;68.19;96078.75;5032598;28;20226;-84
2024/02/19 10:03:22;;;;;;;1.30;1.10;;;;;;;12.23;67.64;96048.53;5029253;28;20228;-85
2024/02/19 10:05:49;;;;;;;1.93;0.97;;;;;;;12.28;67.18;96031.56;5029836;28;20327;-84
2024/02/19 10:08:15;;;;;;;1.50;1.20;;;;;;;12.22;66.37;96000.47;5022644;28;20214;-84
2024/02/19 10:10:45;;;;;;;0.90;0.90;;;;;;;12.15;66.21;95990.03;5032736;28;20271;-86
2024/02/19 10:13:13;;;;;;;1.63;1.07;;;;;;;12.12;65.23;95938.78;5030417;28;20281;-85
2024/02/19 10:15:42;;;;;;;0.87;0.87;;;;;;;12.24;65.99;95986.41;5019397;28;20209;-84
2024/02/19 10:18:17;;;;;;;1.77;0.93;;;;;;;12.24;65.52;95965.75;5032437;28;20198;-85
2024/02/19 10:20:46;;;;;;;4.67;1.00;;;;;;;12.34;64.57;95932.72;5030702;28;20222;-85
2024/02/19 10:23:13;;;;;;;1.63;0.87;;;;;;;12.51;64.23;95901.56;5023073;28;20252;-85
2024/02/19 10:25:41;;;;;;;0.70;0.70;;;;;;;13.17;62.63;95866.88;5015344;28;20211;-85
2024/02/19 10:28:09;;;;;;;1.93;0.70;;;;;;;13.32;59.47;95678.81;5033560;28;20233;-85
2024/02/19 10:30:36;;;;;;;1.00;0.90;;;;;;;13.47;58.37;95621.78;5033689;28;20222;-84
2024/02/19 10:33:03;;;;;;;0.70;0.70;;;;;;;13.55;58.55;95631.97;5037807;28;20213;-84
2024/02/19 10:35:32;;;;;;;0.70;0.70;;;;;;;13.43;57.77;95585.19;5043120;28;20231;-83
2024/02/19 10:37:59;;;;;;;0.77;0.77;;;;;;;13.47;57.92;95547.56;5038075;28;20278;-84
2024/02/19 10:40:26;;;;;;;3.10;2.47;;;;;;;13.17;57.32;95515.28;5040950;28;20202;-85
2024/02/19 10:42:53;;;;;;;1.10;1.00;;;;;;;13.01;58.70;95593.94;5041143;28;20267;-85
2024/02/19 10:45:22;;;;;;;0.73;0.70;;;;;;;12.72;59.58;95620.78;5027576;28;20191;-85
2024/02/19 10:47:52;;;;;;;1.73;1.00;;;;;;;12.64;60.61;95688.09;5031081;28;20225;-85
2024/02/19 10:50:26;;;;;;;0.80;0.77;;;;;;;12.49;61.23;95735.63;5034929;28;20214;-85
2024/02/19 10:53:06;;;;;;;2.50;0.90;;;;;;;12.43;61.79;95773.31;5029990;28;20271;-84
2024/02/19 10:55:38;;;;;;;2.80;0.80;;;;;;;12.26;61.39;95735.81;5027188;28;20206;-85
2024/02/19 10:58:16;;;;;;;1.47;0.97;;;;;;;12.09;62.74;95823.78;5019582;28;20213;-84
2024/02/19 11:00:45;;;;;;;1.00;0.90;;;;;;;12.05;62.00;95788.19;5012582;28;20718;-85
2024/02/19 11:03:14;;;;;;;1.07;0.90;;;;;;;11.98;62.31;95793.25;5025202;28;20222;-84
2024/02/19 11:05:44;;;;;;;1.87;0.90;;;;;;;11.94;62.63;95814.44;5011939;28;20206;-86
2024/02/19 11:08:21;;;;;;;1.07;0.80;;;;;;;11.92;63.09;95853.34;5025764;28;20198;-84
2024/02/19 11:10:49;;;;;;;1.10;1.00;;;;;;;11.92;63.42;95871.41;5027926;28;20233;-85
2024/02/19 11:13:21;;;;;;;1.60;1.00;;;;;;;11.89;63.85;95882.06;5016233;28;20221;-85
2024/02/19 11:15:53;;;;;;;1.10;1.00;;;;;;;11.88;63.79;95893.38;5011038;28;20206;-85
2024/02/19 11:18:22;;;;;;;1.60;1.00;;;;;;;11.99;64.20;95923.09;5026964;28;20208;-85
2024/02/19 11:20:52;;;;;;;2.00;1.00;;;;;;;12.14;63.31;95872.25;5030659;28;20301;-85
2024/02/19 11:23:20;;;;;;;1.33;1.10;;;;;;;12.22;62.54;95828.28;5032101;28;20213;-85
2024/02/19 11:25:51;;;;;;;10.03;7.83;;;;;;;12.18;62.14;95801.22;5027980;28;20218;-85
2024/02/19 11:28:19;;;;;;;1.73;0.90;;;;;;;12.05;61.72;95770.13;5018157;28;20217;-84
2024/02/19 11:34:24;;;;;;;1.47;0.90;;;;;;;12.01;61.16;95743.06;4942152;28;20223;-85
2024/02/19 11:37:52;;;;;;;2.50;1.50;;;;;;;11.86;61.58;95761.16;4909435;29;20285;-84
2024/02/19 11:46:35;;;;;;;;;;;;;;;;;;;;;
2024/02/19 11:49:04;;;;;;;5.77;1.47;;;;;;;11.70;66.81;96057.97;4990088;28;20231;-86
2024/02/19 11:51:34;;;;;;;3.73;1.43;;;;;;;11.99;64.38;95951.47;4993524;28;20227;-84
2024/02/19 11:54:01;;;;;;;1.67;0.90;;;;;;;11.98;61.60;95767.44;4987147;28;20201;-83
2024/02/19 11:56:27;;;;;;;2.20;1.10;;;;;;;11.97;61.07;95728.91;4984937;28;20521;-84
2024/02/19 11:58:56;;;;;;;1.50;1.13;;;;;;;11.82;61.02;95710.91;5009102;28;20196;-85
2024/02/19 12:01:23;;;;;;;3.27;2.20;;;;;;;11.79;61.54;95738.81;4991521;28;20223;-85
2024/02/19 12:03:52;;;;;;;5.63;2.50;;;;;;;11.75;62.42;95789.94;4993956;28;20673;-85
2024/02/19 12:06:20;;;;;;;2.33;1.50;;;;;;;11.85;63.17;95823.25;4993887;28;20202;-84
2024/02/19 12:08:48;;;;;;;1.57;1.10;;;;;;;11.89;63.45;95860.63;4982566;28;20208;-85
2024/02/19 12:11:15;;;;;;;3.37;1.27;;;;;;;11.90;62.53;95814.00;4985212;28;20215;-85
2024/02/19 12:13:43;;;;;;;1.80;1.17;;;;;;;11.90;62.68;95808.84;4994595;28;20242;-85
2024/02/19 12:16:09;;;;;;;1.60;1.10;;;;;;;11.89;60.78;95696.31;5008742;28;20226;-84
2024/02/19 12:18:40;;;;;;;2.60;1.10;;;;;;;11.99;60.39;95677.94;4993704;28;20572;-84
2024/02/19 12:21:08;;;;;;;4.17;1.00;;;;;;;12.10;60.25;95657.63;4999326;28;20291;-86
2024/02/19 12:23:39;;;;;;;1.57;0.97;;;;;;;12.30;59.99;95662.16;4991032;28;20574;-85
2024/02/19 12:26:06;;;;;;;6.27;5.10;;;;;;;12.32;60.07;95650.66;4994857;28;20200;-85
2024/02/19 12:28:35;;;;;;;3.03;1.47;;;;;;;12.57;59.68;95635.56;4999840;28;20207;-85
2024/02/19 12:31:07;;;;;;;1.20;1.10;;;;;;;12.63;59.22;95605.63;5013200;28;20265;-84
2024/02/19 12:33:37;;;;;;;1.57;1.10;;;;;;;12.65;59.55;95632.06;4990411;28;20258;-85
2024/02/19 12:36:23;;;;;;;1.10;1.00;;;;;;;12.60;60.46;95694.59;4971890;28;20254;-85
2024/02/19 12:39:42;;;;;;;1.87;1.20;;;;;;;12.56;60.17;95669.31;4985468;28;20207;-85
2024/02/19 12:42:26;;;;;;;1.43;0.90;;;;;;;12.50;60.13;95659.75;4987998;28;20219;-85
2024/02/19 12:44:53;;;;;;;1.90;0.90;;;;;;;12.52;59.85;95660.34;4982385;28;20210;-85
2024/02/19 12:47:23;;;;;;;1.40;0.70;;;;;;;12.70;60.18;95660.72;5014121;28;20196;-85
2024/02/19 12:50:05;;;;;;;2.73;1.00;;;;;;;12.65;58.60;95586.38;4998608;28;20289;-85
2024/02/19 12:52:48;;;;;;;2.73;1.00;;;;;;;12.92;58.55;95584.72;4996805;28;20315;-85
2024/02/19 12:55:15;;;;;;;0.90;0.70;;;;;;;13.21;57.93;95551.88;5009532;28;20191;-85
2024/02/19 12:58:12;;;;;;;2.00;0.90;;;;;;;13.36;57.41;95519.72;5001373;28;20194;-85
2024/02/19 13:10:49;;;;;;;1.33;0.90;;;;;;;12.62;58.70;95549.78;4973507;28;20266;-86
2024/02/19 13:13:20;;;;;;;9.27;7.47;;;;;;;12.47;59.51;95588.63;4990926;28;20282;-85
2024/02/19 13:15:47;;;;;;;1.13;1.03;;;;;;;12.29;58.86;95570.22;4989134;28;20243;-84
2024/02/19 13:18:13;;;;;;;1.23;0.80;;;;;;;12.17;59.81;95625.88;4985538;28;20311;-85
2024/02/19 13:20:45;;;;;;;1.87;0.90;;;;;;;11.95;61.43;95718.78;4981712;28;20628;-85
2024/02/19 13:23:12;;;;;;;1.63;0.90;;;;;;;11.84;61.91;95757.97;4979681;28;20197;-86
2024/02/19 13:25:42;;;;;;;1.87;0.83;;;;;;;11.79;63.38;95858.28;4978203;28;20220;-85
2024/02/19 13:28:10;;;;;;;1.17;0.80;;;;;;;11.66;61.90;95783.28;4989521;28;20191;-85
2024/02/19 13:30:40;;;;;;;1.13;0.77;;;;;;;11.68;61.47;95745.22;4993438;28;20227;-85
2024/02/19 13:33:15;;;;;;;1.37;0.70;;;;;;;11.80;61.78;95764.44;4990402;28;20323;-85
2024/02/19 13:35:47;;;;;;;1.27;1.00;;;;;;;11.77;61.72;95752.69;5002285;28;20206;-85
2024/02/19 13:38:16;;;;;;;0.90;0.80;;;;;;;11.67;61.99;95782.31;4989189;28;20196;-85
2024/02/19 13:40:49;;;;;;;0.63;0.63;;;;;;;11.34;61.51;95723.38;4987954;28;20227;-85
2024/02/19 13:43:26;;;;;;;1.53;0.90;;;;;;;11.34;59.53;95584.16;4978947;28;20570;-85
2024/02/19 13:46:06;;;;;;;2.33;1.00;;;;;;;11.51;59.25;95553.00;4993645;28;20744;-85
2024/02/19 13:49:07;;;;;;;2.03;0.90;;;;;;;11.57;59.68;95588.34;4983322;28;20202;-84
2024/02/19 13:51:49;;;;;;;1.47;0.70;;;;;;;11.64;59.47;95566.03;4995261;28;20219;-85
2024/02/19 13:54:44;;;;;;;1.30;0.90;;;;;;;11.71;58.70;95541.13;4994684;28;20203;-84
2024/02/19 13:57:11;;;;;;;1.93;0.80;;;;;;;11.85;57.96;95469.81;4989640;28;20203;-85
2024/02/19 13:59:53;;;;;;;;;;;;;;;;;;;;;
2024/02/19 14:05:28;;;;;;;1.20;0.70;;;;;;;12.65;55.90;95353.09;4985991;28;20306;-84
2024/02/19 14:07:55;;;;;;;1.30;1.10;;;;;;;12.82;55.08;95318.16;5005681;28;20199;-85
2024/02/19 14:10:47;;;;;;;1.73;0.97;;;;;;;13.03;55.08;95301.69;5010804;28;20309;-84
2024/02/19 14:13:21;;;;;;;1.30;1.00;;;;;;;13.00;54.42;95336.47;4992164;28;20227;-84
2024/02/19 14:19:30;;;;;;;1.57;1.00;;;;;;;12.90;53.62;95302.44;4982911;28;20810;-84
2024/02/19 14:22:07;;;;;;;0.83;0.83;;;;;;;13.00;53.33;95282.19;4975458;28;20227;-84
2024/02/19 14:24:56;;;;;;;0.80;0.70;;;;;;;13.05;52.38;95242.84;5002972;28;20262;-84
2024/02/19 14:27:46;;;;;;;1.63;0.90;;;;;;;12.98;52.61;95214.41;4993734;28;20222;-84
2024/02/19 14:30:43;;;;;;;1.93;0.80;;;;;;;13.08;52.63;95252.78;4991032;28;20257;-84
2024/02/19 14:33:09;;;;;;;1.73;0.80;;;;;;;13.32;52.51;95266.88;4988363;28;20203;-84